Time;durP1;ratioP1;P1;durP2;ratioP2;P2;SDS_P1;SDS_P2;PMS_P1;PMS_P2;Temp;Humidity;BMP_temperature;BMP_pressure;BME280_temperature;BME280_humidity;BME280_pressure;Samples;Min_cycle;Max_cycle;Signal;HPM_P1;HPM_P2
2023/03/08 00:00:58;;;;;;;10.13;1.70;;;1.50;99.90;;;;;;5098296;28;20043;-76
2023/03/08 00:03:24;;;;;;;5.77;2.27;;;1.50;99.90;;;;;;5098199;28;20040;-76
2023/03/08 00:05:50;;;;;;;8.53;1.90;;;1.50;99.90;;;;;;5097709;28;20369;-76
2023/03/08 00:08:16;;;;;;;10.60;2.20;;;1.50;99.90;;;;;;5097229;28;20536;-76
2023/03/08 00:10:42;;;;;;;13.13;2.33;;;1.60;99.90;;;;;;5097288;28;20044;-76
2023/03/08 00:13:08;;;;;;;6.23;2.03;;;1.50;99.90;;;;;;5096122;28;20127;-76
2023/03/08 00:15:36;;;;;;;8.87;2.33;;;1.60;99.90;;;;;;5097240;28;20047;-76
2023/03/08 00:18:02;;;;;;;7.78;2.45;;;1.50;99.90;;;;;;5097113;28;20047;-76
2023/03/08 00:20:28;;;;;;;9.77;1.85;;;1.40;99.90;;;;;;5097636;28;20051;-76
2023/03/08 00:22:54;;;;;;;7.53;2.07;;;1.50;99.90;;;;;;5096972;28;20040;-76
2023/03/08 00:25:20;;;;;;;6.47;2.00;;;1.50;99.90;;;;;;5079877;28;20055;-78
2023/03/08 00:27:46;;;;;;;8.70;2.07;;;1.50;99.90;;;;;;5097115;28;20075;-76
2023/03/08 00:30:12;;;;;;;8.05;2.33;;;1.50;99.90;;;;;;5096918;28;20094;-76
2023/03/08 00:32:38;;;;;;;4.78;1.42;;;1.60;99.90;;;;;;5096880;28;20051;-76
2023/03/08 00:35:04;;;;;;;5.80;1.40;;;1.50;99.90;;;;;;5096747;28;20043;-76
2023/03/08 00:37:29;;;;;;;6.97;1.55;;;1.50;99.90;;;;;;5095803;28;20381;-76
2023/03/08 00:39:55;;;;;;;6.50;1.40;;;1.50;99.90;;;;;;5096647;28;20047;-76
2023/03/08 00:42:21;;;;;;;7.03;1.40;;;1.50;99.90;;;;;;5096700;28;20044;-76
2023/03/08 00:44:47;;;;;;;5.30;1.00;;;1.50;99.90;;;;;;5096576;28;20474;-76
2023/03/08 00:47:13;;;;;;;5.43;1.70;;;1.50;99.90;;;;;;5096580;28;20046;-76
2023/03/08 00:49:39;;;;;;;4.22;1.00;;;1.50;99.90;;;;;;5096502;28;20131;-77
2023/03/08 00:52:05;;;;;;;3.83;1.20;;;1.40;99.90;;;;;;5095163;28;20165;-77
2023/03/08 00:54:31;;;;;;;5.78;1.05;;;1.40;99.90;;;;;;5096341;28;20039;-77
2023/03/08 00:56:56;;;;;;;6.70;1.17;;;1.30;99.90;;;;;;5095587;28;20069;-77
2023/03/08 00:59:22;;;;;;;3.30;1.17;;;1.40;99.90;;;;;;5096939;28;20127;-76
2023/03/08 01:01:48;;;;;;;3.93;0.70;;;1.40;99.90;;;;;;5095108;28;20377;-76
2023/03/08 01:04:13;;;;;;;6.83;1.10;;;1.40;99.90;;;;;;5078175;28;20052;-76
2023/03/08 01:06:42;;;;;;;5.07;0.87;;;1.40;99.90;;;;;;5096681;28;20051;-76
2023/03/08 01:09:08;;;;;;;3.70;1.02;;;1.30;99.90;;;;;;5096157;28;20048;-76
2023/03/08 01:11:35;;;;;;;4.25;1.00;;;1.30;99.90;;;;;;5096104;28;20044;-76
2023/03/08 01:14:01;;;;;;;4.68;1.20;;;1.30;99.90;;;;;;5096090;28;20104;-76
2023/03/08 01:16:30;;;;;;;4.47;0.90;;;1.20;99.90;;;;;;5095958;28;20085;-76
2023/03/08 01:18:56;;;;;;;3.10;0.80;;;1.20;99.90;;;;;;5096772;28;20392;-76
2023/03/08 01:21:23;;;;;;;3.50;1.02;;;1.20;99.90;;;;;;5096738;28;20048;-76
2023/03/08 01:23:50;;;;;;;3.33;0.73;;;1.10;99.90;;;;;;5094729;28;20055;-76
2023/03/08 01:26:19;;;;;;;5.43;1.50;;;1.10;99.90;;;;;;5095814;28;20476;-76
2023/03/08 01:28:45;;;;;;;4.13;0.93;;;1.00;99.90;;;;;;5095741;28;20083;-76
2023/03/08 01:31:14;;;;;;;5.90;0.98;;;1.10;99.90;;;;;;5095710;28;20057;-76
2023/03/08 01:33:40;;;;;;;3.40;0.80;;;1.10;99.90;;;;;;5095615;28;20147;-76
2023/03/08 01:36:09;;;;;;;3.85;0.90;;;1.00;99.90;;;;;;5094398;28;20048;-76
2023/03/08 01:38:37;;;;;;;3.08;0.90;;;1.00;99.90;;;;;;5096041;28;20044;-76
2023/03/08 01:41:04;;;;;;;8.60;0.90;;;0.90;99.90;;;;;;5096101;28;20044;-76
2023/03/08 01:43:36;;;;;;;4.50;1.30;;;0.90;99.90;;;;;;5095135;28;20579;-76
2023/03/08 01:46:17;;;;;;;7.43;1.23;;;1.00;99.90;;;;;;5096060;28;20059;-76
2023/03/08 01:48:52;;;;;;;4.93;1.55;;;0.90;99.90;;;;;;5096198;28;20036;-76
2023/03/08 01:51:24;;;;;;;;;;;0.90;99.90;;;;;;5095782;28;20430;-76
2023/03/08 01:53:51;;;;;;;2.00;0.80;;;0.80;99.90;;;;;;5096115;28;19924;-76
2023/03/08 01:56:18;;;;;;;3.25;1.05;;;0.90;99.90;;;;;;5095327;28;20047;-76
2023/03/08 01:58:46;;;;;;;3.90;1.08;;;0.90;99.90;;;;;;5060705;28;20050;-77
2023/03/08 02:01:13;;;;;;;3.85;1.30;;;0.90;99.90;;;;;;5095963;28;20052;-76
2023/03/08 02:03:39;;;;;;;3.67;0.93;;;0.90;99.90;;;;;;5095125;28;20048;-76
2023/03/08 02:06:07;;;;;;;4.17;1.10;;;1.00;99.90;;;;;;5093578;28;20044;-76
2023/03/08 02:08:33;;;;;;;5.57;1.00;;;1.00;99.90;;;;;;5094554;28;20048;-77
2023/03/08 02:10:59;;;;;;;6.65;1.35;;;1.10;99.90;;;;;;5096036;28;20044;-76
2023/03/08 02:13:25;;;;;;;4.95;0.88;;;1.10;99.90;;;;;;5093386;28;20092;-76
2023/03/08 02:15:54;;;;;;;3.97;0.77;;;1.20;99.90;;;;;;5095146;28;20083;-76
2023/03/08 02:18:20;;;;;;;7.20;0.90;;;1.20;99.90;;;;;;5094727;28;20047;-75
2023/03/08 02:20:46;;;;;;;7.67;1.13;;;1.30;99.90;;;;;;5094771;28;20048;-75
2023/03/08 02:23:18;;;;;;;4.90;0.73;;;1.30;99.90;;;;;;5095060;28;20048;-75
2023/03/08 02:25:51;;;;;;;4.18;0.80;;;1.30;99.90;;;;;;5094962;28;20040;-75
2023/03/08 02:28:18;;;;;;;3.45;1.00;;;1.20;99.90;;;;;;5095508;28;20119;-75
2023/03/08 02:30:44;;;;;;;4.45;0.80;;;1.20;99.90;;;;;;5094559;28;20044;-75
2023/03/08 02:33:10;;;;;;;4.50;0.80;;;1.20;99.90;;;;;;5076695;28;20051;-75
2023/03/08 02:35:37;;;;;;;5.03;0.90;;;1.10;99.90;;;;;;5094419;28;20193;-76
2023/03/08 02:38:03;;;;;;;3.55;0.80;;;1.00;99.90;;;;;;5094115;28;20487;-75
2023/03/08 02:40:29;;;;;;;4.63;0.70;;;1.00;99.90;;;;;;5094478;28;20051;-74
2023/03/08 02:42:55;;;;;;;5.30;1.47;;;1.10;99.90;;;;;;5077013;28;20056;-75
2023/03/08 02:45:22;;;;;;;3.20;0.95;;;0.90;99.90;;;;;;5094597;28;20056;-75
2023/03/08 02:47:48;;;;;;;5.63;0.93;;;0.90;99.90;;;;;;5094297;28;20415;-75
2023/03/08 02:50:14;;;;;;;3.60;0.90;;;0.90;99.90;;;;;;5095049;28;20123;-75
2023/03/08 02:52:39;;;;;;;4.00;0.90;;;0.90;99.90;;;;;;5094243;28;20123;-75
2023/03/08 02:55:06;;;;;;;6.57;1.00;;;0.80;99.90;;;;;;5076005;28;20050;-75
2023/03/08 02:57:31;;;;;;;3.90;0.82;;;0.80;99.90;;;;;;5094069;28;20044;-75
2023/03/08 02:59:57;;;;;;;1.87;0.70;;;0.80;99.90;;;;;;5094113;28;20098;-75
2023/03/08 03:02:23;;;;;;;4.43;1.70;;;0.80;99.90;;;;;;5094069;28;20087;-75
2023/03/08 03:04:48;;;;;;;4.80;0.80;;;0.90;99.90;;;;;;5093258;28;20135;-75
2023/03/08 03:07:14;;;;;;;4.10;0.97;;;0.90;99.90;;;;;;5094067;28;20089;-75
2023/03/08 03:09:40;;;;;;;4.00;0.83;;;0.70;99.90;;;;;;5093916;28;20044;-76
2023/03/08 03:12:06;;;;;;;2.37;0.60;;;0.80;99.90;;;;;;5092611;28;20404;-75
2023/03/08 03:14:32;;;;;;;5.40;1.42;;;0.80;99.90;;;;;;5093890;28;20044;-76
2023/03/08 03:16:57;;;;;;;7.47;1.00;;;0.70;99.90;;;;;;5093740;28;20510;-75
2023/03/08 03:19:23;;;;;;;6.03;1.20;;;0.70;99.90;;;;;;5094323;28;20044;-75
2023/03/08 03:21:49;;;;;;;3.90;0.70;;;0.70;99.90;;;;;;5093504;28;20052;-75
2023/03/08 03:24:15;;;;;;;5.53;0.97;;;0.70;99.90;;;;;;5092844;28;20052;-75
2023/03/08 03:26:40;;;;;;;5.50;1.10;;;0.60;99.90;;;;;;5093664;28;20046;-78
2023/03/08 03:29:06;;;;;;;6.47;1.13;;;0.60;99.90;;;;;;5093668;28;20080;-75
2023/03/08 03:31:33;;;;;;;6.70;0.90;;;0.60;99.90;;;;;;5094395;28;20040;-75
2023/03/08 03:33:58;;;;;;;8.05;1.00;;;0.60;99.90;;;;;;5076305;28;20150;-75
2023/03/08 03:36:24;;;;;;;4.90;1.10;;;0.60;99.90;;;;;;5092239;28;20570;-75
2023/03/08 03:38:51;;;;;;;6.23;1.57;;;0.60;99.90;;;;;;5094232;28;20040;-75
2023/03/08 03:41:19;;;;;;;2.63;0.80;;;0.60;99.90;;;;;;5093549;28;20055;-75
2023/03/08 03:43:45;;;;;;;7.38;1.13;;;0.50;99.90;;;;;;5092444;28;20432;-76
2023/03/08 03:46:14;;;;;;;4.07;0.90;;;0.50;99.90;;;;;;5091867;28;20102;-75
2023/03/08 03:48:40;;;;;;;5.70;1.08;;;0.50;99.90;;;;;;5093496;28;20036;-75
2023/03/08 03:51:11;;;;;;;6.05;0.90;;;0.50;99.90;;;;;;5094163;28;20100;-75
2023/03/08 03:53:37;;;;;;;3.53;1.40;;;0.50;99.90;;;;;;5093466;28;20047;-75
2023/03/08 03:56:24;;;;;;;2.65;0.95;;;0.50;99.90;;;;;;5093340;28;20044;-75
2023/03/08 03:58:51;;;;;;;6.10;1.30;;;0.50;99.90;;;;;;5092389;28;20516;-75
2023/03/08 04:01:20;;;;;;;4.32;0.90;;;0.50;99.90;;;;;;5093059;28;20456;-75
2023/03/08 04:03:47;;;;;;;3.60;0.88;;;0.40;99.90;;;;;;5093288;28;20048;-75
2023/03/08 04:06:21;;;;;;;4.85;0.90;;;0.40;99.90;;;;;;5093322;28;20476;-75
2023/03/08 04:08:48;;;;;;;6.18;0.90;;;0.40;99.90;;;;;;5094140;28;20051;-75
2023/03/08 04:11:16;;;;;;;5.25;1.02;;;0.40;99.90;;;;;;5093307;28;20048;-75
2023/03/08 04:13:43;;;;;;;5.88;1.00;;;0.40;99.90;;;;;;5093772;28;20189;-75
2023/03/08 04:16:23;;;;;;;5.43;1.02;;;0.50;99.90;;;;;;5075318;28;20477;-75
2023/03/08 04:18:54;;;;;;;8.80;1.10;;;0.40;99.90;;;;;;5093020;28;20043;-75
2023/03/08 04:21:21;;;;;;;2.78;0.88;;;0.40;99.90;;;;;;5093670;28;20055;-75
2023/03/08 04:23:47;;;;;;;5.35;0.95;;;0.50;99.90;;;;;;5093140;28;20138;-77
2023/03/08 04:26:13;;;;;;;6.10;1.30;;;0.50;99.90;;;;;;5092843;28;20468;-75
2023/03/08 04:28:42;;;;;;;4.63;1.10;;;0.40;99.90;;;;;;5093074;28;20051;-75
2023/03/08 04:31:19;;;;;;;5.22;1.02;;;0.30;99.90;;;;;;5093028;28;20054;-75
2023/03/08 04:33:46;;;;;;;4.25;1.35;;;0.30;99.90;;;;;;5092095;28;20059;-75
2023/03/08 04:36:12;;;;;;;5.47;1.17;;;0.30;99.90;;;;;;5095540;28;20384;-75
2023/03/08 04:38:38;;;;;;;6.57;1.23;;;0.40;99.90;;;;;;5096734;28;20105;-75
2023/03/08 04:41:09;;;;;;;7.28;1.67;;;0.40;99.90;;;;;;5097295;28;20051;-75
2023/03/08 04:43:35;;;;;;;7.90;1.00;;;0.40;99.90;;;;;;5096070;28;20222;-75
2023/03/08 04:46:00;;;;;;;4.45;0.93;;;0.40;99.90;;;;;;5096923;28;20052;-75
2023/03/08 04:48:26;;;;;;;4.97;1.10;;;0.40;99.90;;;;;;5096588;28;20059;-75
2023/03/08 04:50:53;;;;;;;6.67;0.90;;;0.30;99.90;;;;;;5096545;28;20104;-75
2023/03/08 04:53:19;;;;;;;4.53;1.02;;;0.40;99.90;;;;;;5096604;28;20170;-75
2023/03/08 04:55:45;;;;;;;8.53;1.43;;;0.40;99.90;;;;;;5096517;28;20105;-75
2023/03/08 04:58:10;;;;;;;3.67;0.83;;;0.40;99.90;;;;;;5094957;28;20372;-75
2023/03/08 05:00:36;;;;;;;2.73;0.73;;;0.40;99.90;;;;;;5096433;28;20055;-75
2023/03/08 05:03:02;;;;;;;4.23;0.80;;;0.40;99.90;;;;;;5096405;28;20494;-75
2023/03/08 05:05:28;;;;;;;5.70;0.97;;;0.40;99.90;;;;;;5096329;28;20051;-75
2023/03/08 05:07:53;;;;;;;2.00;0.80;;;0.40;99.90;;;;;;5061206;28;20040;-76
2023/03/08 05:10:19;;;;;;;4.03;1.10;;;0.40;99.90;;;;;;5094905;28;20048;-75
2023/03/08 05:12:45;;;;;;;6.07;1.00;;;0.40;99.90;;;;;;5095894;28;20127;-75
2023/03/08 05:15:11;;;;;;;4.67;0.97;;;0.30;99.90;;;;;;5096592;28;20044;-76
2023/03/08 05:17:36;;;;;;;3.50;1.00;;;0.30;99.90;;;;;;5096552;28;20445;-75
2023/03/08 05:20:03;;;;;;;7.77;1.40;;;0.40;99.90;;;;;;5096278;28;20048;-76
2023/03/08 05:22:29;;;;;;;4.35;1.13;;;0.30;99.90;;;;;;5095816;28;20082;-75
2023/03/08 05:24:54;;;;;;;5.17;1.10;;;0.30;99.90;;;;;;5095894;28;20083;-76
2023/03/08 05:27:20;;;;;;;3.53;1.00;;;0.30;99.90;;;;;;5094944;28;20139;-75
2023/03/08 05:29:46;;;;;;;2.80;0.90;;;0.30;99.90;;;;;;5096446;28;20388;-75
2023/03/08 05:32:12;;;;;;;4.23;1.20;;;0.30;99.90;;;;;;5094588;28;20040;-75
2023/03/08 05:34:38;;;;;;;3.25;1.10;;;0.30;99.90;;;;;;5094819;28;20044;-75
2023/03/08 05:37:03;;;;;;;4.50;1.30;;;0.30;99.90;;;;;;5095503;28;20040;-75
2023/03/08 05:39:29;;;;;;;6.73;1.50;;;0.30;99.90;;;;;;5096158;28;20044;-75
2023/03/08 05:41:55;;;;;;;3.63;1.30;;;0.30;99.90;;;;;;5095575;28;20039;-75
2023/03/08 05:44:21;;;;;;;5.18;1.67;;;0.30;99.90;;;;;;5095378;28;20067;-75
2023/03/08 05:46:51;;;;;;;8.23;1.57;;;0.30;99.90;;;;;;5093846;28;20044;-75
2023/03/08 05:49:16;;;;;;;5.05;1.40;;;0.30;99.90;;;;;;5094508;28;20063;-75
2023/03/08 05:51:42;;;;;;;5.20;1.43;;;0.30;99.90;;;;;;5095417;28;20483;-75
2023/03/08 05:54:08;;;;;;;3.10;1.17;;;0.30;99.90;;;;;;5094693;28;20052;-75
2023/03/08 05:56:34;;;;;;;4.03;1.10;;;0.20;99.90;;;;;;5095327;28;20289;-75
2023/03/08 05:59:00;;;;;;;5.40;1.70;;;0.20;99.90;;;;;;5095163;28;20051;-76
2023/03/08 06:01:27;;;;;;;9.73;3.13;;;0.20;99.90;;;;;;5095679;28;20107;-75
2023/03/08 06:03:55;;;;;;;6.93;2.28;;;0.10;99.90;;;;;;5094729;28;20040;-75
2023/03/08 06:06:24;;;;;;;8.77;2.47;;;0.20;99.90;;;;;;5095586;28;20046;-75
2023/03/08 06:08:49;;;;;;;4.28;1.77;;;0.20;99.90;;;;;;5095024;28;20048;-75
2023/03/08 06:11:15;;;;;;;6.20;1.50;;;0.20;99.90;;;;;;5095013;28;20044;-75
2023/03/08 06:13:41;;;;;;;4.93;1.60;;;0.30;99.90;;;;;;5095431;28;20040;-75
2023/03/08 06:16:08;;;;;;;7.43;1.80;;;0.20;99.90;;;;;;5093953;28;20047;-75
2023/03/08 06:18:38;;;;;;;7.07;1.83;;;0.20;99.90;;;;;;5093848;28;20044;-75
2023/03/08 06:21:13;;;;;;;6.68;1.85;;;0.10;99.90;;;;;;5094769;28;20127;-76
2023/03/08 06:23:39;;;;;;;5.00;1.70;;;0.10;99.90;;;;;;5094820;28;20114;-76
2023/03/08 06:26:06;;;;;;;3.73;1.43;;;0.10;99.90;;;;;;5094435;28;20051;-76
2023/03/08 06:28:32;;;;;;;4.00;1.63;;;0.10;99.90;;;;;;5094438;28;20480;-76
2023/03/08 06:30:58;;;;;;;4.97;1.58;;;0.10;99.90;;;;;;5094615;28;20059;-76
2023/03/08 06:33:28;;;;;;;6.10;2.22;;;0.10;99.90;;;;;;5094619;28;20097;-75
2023/03/08 06:36:09;;;;;;;6.22;1.83;;;0.10;99.90;;;;;;5094610;28;20048;-76
2023/03/08 06:38:37;;;;;;;9.88;1.95;;;0.20;99.90;;;;;;5094803;28;20040;-76
2023/03/08 06:41:03;;;;;;;7.15;1.60;;;0.30;99.90;;;;;;5094416;28;20510;-76
2023/03/08 06:43:30;;;;;;;7.93;1.48;;;0.20;99.90;;;;;;5094681;28;20107;-76
2023/03/08 06:45:56;;;;;;;7.30;1.67;;;0.20;99.90;;;;;;5094462;28;20064;-75
2023/03/08 06:48:22;;;;;;;6.53;1.83;;;0.30;99.90;;;;;;5094297;28;20495;-75
2023/03/08 06:50:49;;;;;;;4.25;1.30;;;0.30;99.90;;;;;;5094290;28;20040;-75
2023/03/08 06:53:15;;;;;;;6.38;1.55;;;0.30;99.90;;;;;;5094501;28;20406;-76
2023/03/08 06:55:41;;;;;;;4.27;1.60;;;0.30;99.90;;;;;;5093061;28;20040;-75
2023/03/08 06:58:07;;;;;;;7.80;1.98;;;0.40;99.90;;;;;;5094476;28;20036;-76
2023/03/08 07:00:33;;;;;;;7.22;1.70;;;0.40;99.90;;;;;;5093852;28;20507;-75
2023/03/08 07:02:59;;;;;;;6.70;1.70;;;0.40;99.90;;;;;;5093888;28;20044;-75
2023/03/08 07:05:25;;;;;;;5.93;1.60;;;0.50;99.90;;;;;;5094576;28;20430;-75
2023/03/08 07:07:51;;;;;;;6.28;1.95;;;0.50;99.90;;;;;;5093998;28;20040;-76
2023/03/08 07:10:19;;;;;;;10.60;2.10;;;0.60;99.90;;;;;;5094126;28;20047;-76
2023/03/08 07:12:49;;;;;;;5.97;2.28;;;0.60;99.90;;;;;;5075967;28;20060;-75
2023/03/08 07:15:18;;;;;;;9.15;3.60;;;0.80;99.90;;;;;;5093868;28;20145;-75
2023/03/08 07:17:46;;;;;;;5.82;2.60;;;0.70;99.90;;;;;;5094156;28;20047;-75
2023/03/08 07:20:13;;;;;;;6.32;2.72;;;0.80;99.90;;;;;;5076782;28;20079;-75
2023/03/08 07:22:43;;;;;;;7.05;2.47;;;0.80;99.90;;;;;;5093775;28;20051;-75
2023/03/08 07:25:14;;;;;;;6.93;2.40;;;0.80;99.90;;;;;;5093755;28;20095;-76
2023/03/08 07:27:40;;;;;;;8.13;2.85;;;0.90;99.90;;;;;;5094012;28;20120;-75
2023/03/08 07:30:08;;;;;;;10.47;3.17;;;0.90;99.90;;;;;;5093676;28;20123;-75
2023/03/08 07:32:34;;;;;;;5.97;2.30;;;0.90;99.90;;;;;;5093951;28;20047;-75
2023/03/08 07:35:00;;;;;;;7.57;2.30;;;1.00;99.90;;;;;;5094438;28;20040;-75
2023/03/08 07:37:26;;;;;;;8.17;2.33;;;1.00;99.90;;;;;;5093191;28;20396;-75
2023/03/08 07:39:52;;;;;;;6.83;2.47;;;1.00;99.90;;;;;;5093165;28;20059;-75
2023/03/08 07:42:17;;;;;;;6.50;3.03;;;1.00;99.90;;;;;;5093838;28;20048;-75
2023/03/08 07:44:44;;;;;;;9.57;3.97;;;1.00;99.90;;;;;;5093439;28;20563;-74
2023/03/08 07:47:10;;;;;;;10.98;3.97;;;1.10;99.90;;;;;;5093318;28;20059;-75
2023/03/08 07:49:36;;;;;;;7.55;4.28;;;1.10;99.90;;;;;;5093470;28;20396;-75
2023/03/08 07:52:02;;;;;;;6.57;3.13;;;1.20;99.90;;;;;;5094191;28;20040;-75
2023/03/08 07:54:27;;;;;;;7.60;3.30;;;1.20;99.90;;;;;;5093437;28;20044;-75
2023/03/08 07:56:54;;;;;;;8.10;3.70;;;1.30;99.90;;;;;;5092201;28;20040;-75
2023/03/08 07:59:21;;;;;;;6.40;2.90;;;1.40;99.90;;;;;;5093390;28;20097;-76
2023/03/08 08:01:47;;;;;;;8.18;3.15;;;1.40;99.90;;;;;;5093653;28;20052;-76
2023/03/08 08:04:13;;;;;;;7.83;2.70;;;1.50;99.90;;;;;;5093305;28;20066;-78
2023/03/08 08:06:39;;;;;;;5.97;3.20;;;1.50;99.90;;;;;;5093844;28;20044;-75
2023/03/08 08:09:06;;;;;;;6.68;3.05;;;1.50;99.90;;;;;;5093353;28;20044;-75
2023/03/08 08:11:33;;;;;;;7.93;3.08;;;1.50;99.90;;;;;;5095255;28;20044;-76
2023/03/08 08:13:59;;;;;;;10.88;3.35;;;1.60;99.90;;;;;;5097163;28;20093;-76
2023/03/08 08:16:25;;;;;;;7.18;2.83;;;1.70;99.90;;;;;;5097766;28;20051;-76
2023/03/08 08:18:52;;;;;;;7.53;2.90;;;1.70;99.90;;;;;;5097152;28;20047;-77
2023/03/08 08:21:18;;;;;;;6.75;2.95;;;1.70;99.90;;;;;;5097232;28;20123;-77
2023/03/08 08:23:44;;;;;;;6.37;2.90;;;1.70;99.90;;;;;;5097170;28;20207;-77
2023/03/08 08:26:13;;;;;;;7.53;3.20;;;1.80;99.90;;;;;;5096921;28;20466;-77
2023/03/08 08:28:40;;;;;;;7.43;2.63;;;1.80;99.90;;;;;;5097095;28;20047;-77
2023/03/08 08:31:17;;;;;;;6.15;3.10;;;1.80;99.90;;;;;;5096717;28;20388;-78
2023/03/08 08:33:43;;;;;;;8.73;3.08;;;2.00;99.90;;;;;;5097599;28;20055;-77
2023/03/08 08:36:15;;;;;;;10.13;3.13;;;2.00;99.90;;;;;;5096912;28;20126;-78
2023/03/08 08:38:45;;;;;;;6.30;2.80;;;2.10;99.90;;;;;;5097384;28;20044;-77
2023/03/08 08:41:14;;;;;;;6.18;3.00;;;2.20;99.90;;;;;;5096794;28;20537;-79
2023/03/08 08:43:40;;;;;;;8.50;3.15;;;2.30;99.90;;;;;;5095810;28;20396;-78
2023/03/08 08:46:06;;;;;;;7.47;2.83;;;2.30;99.90;;;;;;5096945;28;20102;-79
2023/03/08 08:48:32;;;;;;;9.73;3.40;;;2.40;99.90;;;;;;5097466;28;20101;-79
2023/03/08 08:50:59;;;;;;;10.80;2.92;;;2.50;99.90;;;;;;5096684;28;20086;-79
2023/03/08 08:53:25;;;;;;;6.20;2.60;;;2.40;99.90;;;;;;5096599;28;20059;-79
2023/03/08 08:55:51;;;;;;;5.78;2.72;;;2.50;99.90;;;;;;5096300;28;20488;-80
2023/03/08 08:58:17;;;;;;;5.27;2.50;;;2.50;99.90;;;;;;5096375;28;20047;-81
2023/03/08 09:00:44;;;;;;;6.57;2.87;;;2.50;99.90;;;;;;5096523;28;20044;-81
2023/03/08 09:03:10;;;;;;;7.90;3.38;;;2.70;99.90;;;;;;5096262;28;20343;-80
2023/03/08 09:05:42;;;;;;;7.07;2.58;;;2.60;99.90;;;;;;5096390;28;20048;-82
2023/03/08 09:08:09;;;;;;;4.90;3.08;;;2.70;99.90;;;;;;5096349;28;20092;-81
2023/03/08 09:10:37;;;;;;;4.65;2.47;;;2.70;99.90;;;;;;5096329;28;20131;-81
2023/03/08 09:13:03;;;;;;;5.38;2.60;;;2.80;99.90;;;;;;5096271;28;20044;-80
2023/03/08 09:15:29;;;;;;;4.10;2.40;;;2.80;99.90;;;;;;5096237;28;20090;-80
2023/03/08 09:17:55;;;;;;;7.00;2.63;;;2.70;99.90;;;;;;5096257;28;20500;-79
2023/03/08 09:20:20;;;;;;;7.57;3.03;;;2.80;99.90;;;;;;5096156;28;20084;-77
2023/03/08 09:22:46;;;;;;;7.83;2.97;;;2.70;99.90;;;;;;5094677;28;20039;-76
2023/03/08 09:25:13;;;;;;;5.30;2.70;;;2.80;99.90;;;;;;5095961;28;20052;-77
2023/03/08 09:27:40;;;;;;;5.18;2.50;;;2.80;99.90;;;;;;5096785;28;20062;-78
2023/03/08 09:30:14;;;;;;;6.07;2.50;;;2.80;99.90;;;;;;5096209;28;20122;-77
2023/03/08 09:32:40;;;;;;;8.35;2.53;;;3.00;99.90;;;;;;5096453;28;20048;-76
2023/03/08 09:35:06;;;;;;;7.20;2.73;;;3.00;99.90;;;;;;5095818;28;20054;-75
2023/03/08 09:37:32;;;;;;;6.33;2.60;;;3.00;99.90;;;;;;5096508;28;20075;-77
2023/03/08 09:39:58;;;;;;;6.78;2.38;;;3.10;99.90;;;;;;5095433;28;20776;-75
2023/03/08 09:42:32;;;;;;;5.72;2.80;;;3.10;99.90;;;;;;5095427;28;20127;-73
2023/03/08 09:45:27;;;;;;;7.85;2.50;;;3.20;99.90;;;;;;5094347;28;20504;-75
2023/03/08 09:48:13;;;;;;;6.78;2.50;;;3.30;99.90;;;;;;5095872;28;20054;-74
2023/03/08 09:50:51;;;;;;;8.23;2.10;;;3.30;99.90;;;;;;5095538;28;20089;-74
2023/03/08 09:53:38;;;;;;;5.32;2.53;;;3.30;99.90;;;;;;5095534;28;20044;-76
2023/03/08 09:56:09;;;;;;;6.72;1.90;;;3.40;99.90;;;;;;5095503;28;20096;-76
2023/03/08 09:58:45;;;;;;;6.72;2.15;;;3.50;99.90;;;;;;5095379;28;20044;-82
2023/03/08 10:01:26;;;;;;;5.85;2.13;;;3.50;99.90;;;;;;5095392;28;20123;-82
2023/03/08 10:04:06;;;;;;;7.60;2.17;;;3.60;99.90;;;;;;5095283;28;20048;-78
2023/03/08 10:06:46;;;;;;;5.60;1.70;;;3.70;99.90;;;;;;5095266;28;20127;-81
2023/03/08 10:09:35;;;;;;;12.57;2.83;;;3.80;99.90;;;;;;5094457;28;20052;-81
2023/03/08 10:12:38;;;;;;;6.20;1.77;;;3.80;99.90;;;;;;5095703;28;20481;-81
2023/03/08 10:15:13;;;;;;;5.13;1.70;;;3.90;99.90;;;;;;5095173;28;20069;-80
2023/03/08 10:17:54;;;;;;;5.43;2.03;;;4.00;99.90;;;;;;5095637;28;20040;-79
2023/03/08 10:20:26;;;;;;;5.47;1.77;;;4.00;99.90;;;;;;5095081;28;20093;-79
2023/03/08 10:23:11;;;;;;;5.03;2.30;;;4.10;99.90;;;;;;5093628;28;20083;-80
2023/03/08 10:25:38;;;;;;;6.55;2.22;;;4.20;99.90;;;;;;5094941;28;20576;-80
2023/03/08 10:28:16;;;;;;;6.93;2.20;;;4.20;99.90;;;;;;5093867;28;20058;-81
2023/03/08 10:30:46;;;;;;;5.50;1.98;;;4.30;99.90;;;;;;5095014;28;20054;-76
2023/03/08 10:33:16;;;;;;;5.78;1.92;;;4.40;99.90;;;;;;5094421;28;20048;-83
2023/03/08 10:36:01;;;;;;;4.85;2.50;;;4.50;99.90;;;;;;5094669;28;20044;-83
2023/03/08 10:38:30;;;;;;;10.80;2.05;;;4.60;99.90;;;;;;5094611;28;20044;-81
2023/03/08 10:41:25;;;;;;;5.03;1.58;;;4.60;99.90;;;;;;5095066;28;20103;-82
2023/03/08 10:43:53;;;;;;;5.07;1.20;;;4.70;99.90;;;;;;5077589;28;20101;-79
2023/03/08 10:46:20;;;;;;;2.78;1.15;;;4.70;99.90;;;;;;5094345;28;20051;-80
2023/03/08 10:48:46;;;;;;;4.03;1.20;;;4.80;99.90;;;;;;5094353;28;20487;-78
2023/03/08 10:51:24;;;;;;;3.65;1.20;;;4.80;99.90;;;;;;5093732;28;20087;-80
2023/03/08 10:53:57;;;;;;;3.10;1.10;;;4.80;99.90;;;;;;5094369;28;20047;-77
2023/03/08 10:56:33;;;;;;;4.13;1.00;;;4.80;99.90;;;;;;5094599;28;20434;-76
2023/03/08 10:58:58;;;;;;;;;;;4.80;99.90;;;;;;5094669;28;20040;-76
2023/03/08 11:01:30;;;;;;;6.13;1.37;;;4.70;99.90;;;;;;5094538;28;20087;-78
2023/03/08 11:04:03;;;;;;;4.72;1.02;;;4.80;99.90;;;;;;5094938;28;20052;-81
2023/03/08 11:06:30;;;;;;;11.55;3.55;;;4.70;99.90;;;;;;5094428;28;20040;-79
2023/03/08 11:08:58;;;;;;;5.45;1.20;;;4.80;99.90;;;;;;5094902;28;20459;-79
2023/03/08 11:11:25;;;;;;;3.88;1.15;;;4.80;99.90;;;;;;5094878;28;20090;-76
2023/03/08 11:13:52;;;;;;;4.03;1.63;;;4.70;99.90;;;;;;5093994;28;20090;-78
2023/03/08 11:16:30;;;;;;;4.78;1.00;;;4.80;99.90;;;;;;5093946;28;20488;-77
2023/03/08 11:19:12;;;;;;;3.72;1.00;;;4.70;99.90;;;;;;5094183;28;20156;-81
2023/03/08 11:21:46;;;;;;;4.72;1.02;;;4.70;99.90;;;;;;5093906;28;20130;-76
2023/03/08 11:24:30;;;;;;;4.60;1.27;;;4.70;99.90;;;;;;5093923;28;20048;-81
2023/03/08 11:27:04;;;;;;;3.72;1.17;;;4.70;99.90;;;;;;5094109;28;20052;-78
2023/03/08 11:29:35;;;;;;;3.15;1.10;;;4.80;99.90;;;;;;5093816;28;20127;-76
2023/03/08 11:32:29;;;;;;;6.32;1.10;;;4.80;99.90;;;;;;5094527;28;20122;-75
2023/03/08 11:35:18;;;;;;;2.90;0.90;;;4.90;99.90;;;;;;5093990;28;20435;-77
2023/03/08 11:38:08;;;;;;;3.20;0.90;;;5.00;99.90;;;;;;5093632;28;20036;-75
2023/03/08 11:40:34;;;;;;;4.22;0.90;;;4.90;99.90;;;;;;5094525;28;20067;-75
2023/03/08 11:43:21;;;;;;;3.57;1.00;;;5.00;99.90;;;;;;5093567;28;20480;-76
2023/03/08 11:46:11;;;;;;;3.80;1.33;;;4.90;99.90;;;;;;5091274;28;20052;-75
2023/03/08 11:48:57;;;;;;;5.45;1.20;;;5.00;99.90;;;;;;5094109;28;20052;-75
2023/03/08 11:51:41;;;;;;;4.50;0.90;;;5.00;99.90;;;;;;5093339;28;20456;-75
2023/03/08 11:54:25;;;;;;;4.32;0.98;;;5.00;99.90;;;;;;5093560;28;20054;-75
2023/03/08 11:56:57;;;;;;;4.53;1.23;;;5.00;99.90;;;;;;5093497;28;20099;-75
2023/03/08 11:59:27;;;;;;;4.28;0.73;;;4.90;99.90;;;;;;5093281;28;20048;-76
2023/03/08 12:02:09;;;;;;;6.28;1.17;;;4.90;99.90;;;;;;5093401;28;20052;-75
2023/03/08 12:04:50;;;;;;;3.33;0.90;;;4.90;99.90;;;;;;5093443;28;20044;-79
2023/03/08 12:07:26;;;;;;;5.25;1.20;;;4.90;99.90;;;;;;5093336;28;20043;-77
2023/03/08 12:10:14;;;;;;;8.60;3.00;;;5.00;99.90;;;;;;5093370;28;20475;-76
2023/03/08 12:13:00;;;;;;;4.32;1.38;;;5.00;99.90;;;;;;5093278;28;20105;-77
2023/03/08 12:15:46;;;;;;;4.05;1.10;;;5.10;99.90;;;;;;5093709;28;20048;-79
2023/03/08 12:18:42;;;;;;;8.35;2.42;;;5.10;99.90;;;;;;5093257;28;20047;-83
2023/03/08 12:21:08;;;;;;;;;;;5.20;99.90;;;;;;5093328;28;20055;-79
2023/03/08 12:24:04;;;;;;;4.60;2.00;;;5.20;99.90;;;;;;5092058;28;19920;-80
2023/03/08 12:26:40;;;;;;;5.85;1.58;;;5.20;99.90;;;;;;5093512;28;20086;-77
2023/03/08 12:29:17;;;;;;;5.60;1.20;;;5.20;99.90;;;;;;5093782;28;20044;-78
2023/03/08 12:31:45;;;;;;;6.72;2.92;;;5.20;99.90;;;;;;5093011;28;20354;-74
2023/03/08 12:34:27;;;;;;;17.40;13.40;;;5.20;99.90;;;;;;5093330;28;20483;-79
2023/03/08 12:36:53;;;;;;;6.57;3.25;;;5.30;99.90;;;;;;5092493;28;20418;-77
2023/03/08 12:39:35;;;;;;;3.67;1.50;;;5.20;99.90;;;;;;5093259;28;20044;-74
2023/03/08 12:42:10;;;;;;;3.20;1.15;;;5.20;99.90;;;;;;5093129;28;20102;-76
2023/03/08 12:44:38;;;;;;;5.55;1.52;;;5.30;99.90;;;;;;5091724;28;20052;-80
2023/03/08 12:47:12;;;;;;;2.90;0.88;;;5.30;99.90;;;;;;5092494;28;20052;-76
2023/03/08 12:50:06;;;;;;;4.43;0.85;;;5.20;99.90;;;;;;5092224;28;20075;-75
2023/03/08 12:52:36;;;;;;;6.38;0.82;;;5.10;99.90;;;;;;5092405;28;20058;-75
2023/03/08 12:55:30;;;;;;;4.13;1.45;;;5.10;99.90;;;;;;5092333;28;20055;-82
2023/03/08 12:57:58;;;;;;;5.70;1.40;;;5.00;99.90;;;;;;5095185;28;20081;-75
2023/03/08 13:00:32;;;;;;;4.68;1.30;;;5.00;99.90;;;;;;5095694;28;20580;-78
2023/03/08 13:03:05;;;;;;;3.42;0.90;;;4.90;99.90;;;;;;5095697;28;20051;-75
2023/03/08 13:05:39;;;;;;;3.70;1.00;;;4.90;99.90;;;;;;5096004;28;20484;-75
2023/03/08 13:08:16;;;;;;;6.50;1.48;;;4.90;99.90;;;;;;5096185;28;20051;-80
2023/03/08 13:10:51;;;;;;;18.77;4.57;;;5.00;99.90;;;;;;5096126;28;20541;-76